createdAt,value
2022-08-26T00:02:07.381Z,16.77
2022-08-26T00:04:36.115Z,24.67
2022-08-26T00:07:05.269Z,29.63
2022-08-26T00:09:37.289Z,26.88
2022-08-26T00:12:09.474Z,26.13
2022-08-26T00:14:40.179Z,19.95
2022-08-26T00:17:08.624Z,26.58
2022-08-26T00:19:35.990Z,21.50
2022-08-26T00:22:03.415Z,25.17
2022-08-26T00:24:30.795Z,26.90
2022-08-26T00:26:58.522Z,27.50
2022-08-26T00:29:26.202Z,38.00
2022-08-26T00:31:53.422Z,34.05
2022-08-26T00:34:20.625Z,52.28
2022-08-26T00:36:51.847Z,23.42
2022-08-26T00:39:20.659Z,29.98
2022-08-26T00:41:48.854Z,34.90
2022-08-26T00:44:16.843Z,29.17
2022-08-26T00:46:49.087Z,32.10
2022-08-26T00:49:22.642Z,38.70
2022-08-26T00:51:53.315Z,36.00
2022-08-26T00:54:26.949Z,38.15
2022-08-26T00:57:02.527Z,55.03
2022-08-26T00:59:33.260Z,51.35
2022-08-26T01:02:02.671Z,51.53
2022-08-26T01:04:33.592Z,58.97
2022-08-26T01:07:01.745Z,52.40
2022-08-26T01:09:30.962Z,53.25
2022-08-26T01:12:01.264Z,51.53
2022-08-26T01:14:36.752Z,58.83
2022-08-26T01:17:07.745Z,60.05
2022-08-26T01:19:46.183Z,74.25
2022-08-26T01:22:26.593Z,58.88
2022-08-26T01:24:58.851Z,83.82
2022-08-26T01:27:32.598Z,57.58
2022-08-26T01:30:02.244Z,52.50
2022-08-26T01:32:32.008Z,63.60
2022-08-26T01:34:59.998Z,53.58
2022-08-26T01:37:35.305Z,51.90
2022-08-26T01:40:06.957Z,52.78
2022-08-26T01:42:35.713Z,49.85
2022-08-26T01:45:15.828Z,36.88
2022-08-26T01:47:44.923Z,42.42
2022-08-26T01:50:27.429Z,34.78
2022-08-26T01:52:58.317Z,40.58
2022-08-26T01:55:32.112Z,40.95
2022-08-26T01:58:04.588Z,28.40
2022-08-26T02:00:34.678Z,40.10
2022-08-26T02:03:17.086Z,30.67
2022-08-26T02:05:54.923Z,34.72
2022-08-26T02:08:28.155Z,37.22
2022-08-26T02:10:55.671Z,35.40
2022-08-26T02:13:26.976Z,39.17
2022-08-26T02:15:56.549Z,47.13
2022-08-26T02:18:25.293Z,48.22
2022-08-26T02:20:55.169Z,42.95
2022-08-26T02:23:24.419Z,38.53
2022-08-26T02:26:04.450Z,43.80
2022-08-26T02:28:39.394Z,39.03
2022-08-26T02:31:08.146Z,38.45
2022-08-26T02:33:43.065Z,47.47
2022-08-26T02:36:13.374Z,54.70
2022-08-26T02:38:40.980Z,53.63
2022-08-26T02:41:11.414Z,57.45
2022-08-26T02:43:38.662Z,50.35
2022-08-26T02:46:07.382Z,53.03
2022-08-26T02:48:35.578Z,44.83
2022-08-26T02:51:03.992Z,49.65
2022-08-26T02:53:35.451Z,47.38
2022-08-26T02:56:04.459Z,40.30
2022-08-26T02:58:31.973Z,39.30
2022-08-26T03:01:01.554Z,40.33
2022-08-26T03:03:29.050Z,35.60
2022-08-26T03:05:57.829Z,35.55
2022-08-26T03:08:26.261Z,35.65
2022-08-26T03:10:55.767Z,42.17
2022-08-26T03:13:23.744Z,37.88
2022-08-26T03:15:53.955Z,39.33
2022-08-26T03:18:21.374Z,41.05
2022-08-26T03:20:48.763Z,31.13
2022-08-26T03:23:16.242Z,38.10
2022-08-26T03:25:43.518Z,32.08
2022-08-26T03:28:10.917Z,29.40
2022-08-26T03:30:45.111Z,40.40
2022-08-26T03:33:14.386Z,28.98
2022-08-26T03:35:44.250Z,31.02
2022-08-26T03:38:12.082Z,33.83
2022-08-26T03:40:40.503Z,31.58
2022-08-26T03:43:10.083Z,34.58
2022-08-26T03:45:38.150Z,27.08
2022-08-26T03:48:06.094Z,30.23
2022-08-26T03:50:36.376Z,24.10
2022-08-26T03:53:04.285Z,26.08
2022-08-26T03:55:35.061Z,23.10
2022-08-26T03:58:02.566Z,25.02
2022-08-26T04:00:30.525Z,26.60
2022-08-26T04:02:58.120Z,26.15
2022-08-26T04:05:27.094Z,29.92
2022-08-26T04:07:56.057Z,26.33
2022-08-26T04:10:28.971Z,23.65
2022-08-26T04:13:00.724Z,30.40
2022-08-26T04:15:29.393Z,27.70
2022-08-26T04:17:57.555Z,31.65
2022-08-26T04:20:26.246Z,32.80
2022-08-26T04:22:53.945Z,30.23
2022-08-26T04:25:22.605Z,31.27
2022-08-26T04:27:52.872Z,25.20
2022-08-26T04:30:38.218Z,25.63
2022-08-26T04:33:12.928Z,33.45
2022-08-26T04:35:41.236Z,32.63
2022-08-26T04:38:12.035Z,22.80
2022-08-26T04:40:46.702Z,25.48
2022-08-26T04:43:15.502Z,21.38
2022-08-26T04:45:43.847Z,20.67
2022-08-26T04:48:11.475Z,20.60
2022-08-26T04:50:44.193Z,24.80
2022-08-26T04:53:16.846Z,20.70
2022-08-26T04:55:45.181Z,20.23
2022-08-26T04:58:17.489Z,21.25
2022-08-26T05:00:46.994Z,25.77
2022-08-26T05:03:17.619Z,18.60
2022-08-26T05:05:50.759Z,22.92
2022-08-26T05:08:20.571Z,17.20
2022-08-26T05:10:52.408Z,18.08
2022-08-26T05:13:21.328Z,18.50
2022-08-26T05:16:01.171Z,25.88
2022-08-26T05:18:39.199Z,19.13
2022-08-26T05:21:23.144Z,17.13
2022-08-26T05:23:52.066Z,15.93
2022-08-26T05:26:23.017Z,16.80
2022-08-26T05:28:54.658Z,25.08
2022-08-26T05:31:26.743Z,19.25
2022-08-26T05:33:55.074Z,19.23
2022-08-26T05:36:26.928Z,18.83
2022-08-26T05:38:56.156Z,19.95
2022-08-26T05:41:34.259Z,20.33
2022-08-26T05:44:08.770Z,18.48
2022-08-26T05:46:42.541Z,13.65
2022-08-26T05:49:14.467Z,19.90
2022-08-26T05:51:52.167Z,20.02
2022-08-26T05:54:21.942Z,16.10
2022-08-26T05:56:52.112Z,10.15
2022-08-26T05:59:21.259Z,16.55
2022-08-26T06:01:57.417Z,16.67
2022-08-26T06:04:27.215Z,11.20
2022-08-26T06:07:00.730Z,13.68
2022-08-26T06:09:38.612Z,12.20
2022-08-26T06:12:07.565Z,15.93
2022-08-26T06:14:37.509Z,15.15
2022-08-26T06:17:05.165Z,15.73
2022-08-26T06:19:34.379Z,17.08
2022-08-26T06:22:23.631Z,13.15
2022-08-26T06:25:11.950Z,13.43
2022-08-26T06:27:39.304Z,20.13
2022-08-26T06:30:07.507Z,13.25
2022-08-26T06:32:34.916Z,12.00
2022-08-26T06:35:02.651Z,13.18
2022-08-26T06:37:30.303Z,11.45
2022-08-26T06:39:57.964Z,9.93
2022-08-26T06:42:25.444Z,12.75
2022-08-26T06:44:54.304Z,9.82
2022-08-26T06:47:22.311Z,17.55
2022-08-26T06:49:51.102Z,17.88
2022-08-26T06:52:22.917Z,8.57
2022-08-26T06:54:51.838Z,8.10
2022-08-26T06:57:20.524Z,10.98
2022-08-26T06:59:51.259Z,11.23
2022-08-26T07:02:19.688Z,9.60
2022-08-26T07:04:48.620Z,14.25
2022-08-26T07:07:18.774Z,9.43
2022-08-26T07:09:52.525Z,11.07
2022-08-26T07:12:20.768Z,10.73
2022-08-26T07:14:48.599Z,11.10
2022-08-26T07:17:16.567Z,13.85
2022-08-26T07:19:44.210Z,16.77
2022-08-26T07:22:12.700Z,12.02
2022-08-26T07:24:42.539Z,10.02
2022-08-26T07:27:14.087Z,16.73
2022-08-26T07:29:43.780Z,9.05
2022-08-26T07:32:13.791Z,11.65
2022-08-26T07:34:42.547Z,5.40
2022-08-26T07:37:10.216Z,8.57
2022-08-26T07:39:38.652Z,10.27
2022-08-26T07:42:09.070Z,8.23
2022-08-26T07:44:38.524Z,11.52
2022-08-26T07:47:10.584Z,16.45
2022-08-26T07:49:57.884Z,7.43
2022-08-26T07:52:28.466Z,6.65
2022-08-26T07:54:58.446Z,9.73
2022-08-26T07:57:26.754Z,12.45
2022-08-26T07:59:55.734Z,8.77
2022-08-26T08:02:25.067Z,11.05
2022-08-26T08:04:53.567Z,10.65
2022-08-26T08:07:38.594Z,33.42
2022-08-26T08:10:13.092Z,6.97
2022-08-26T08:12:42.441Z,9.40
2022-08-26T08:15:12.403Z,13.65
2022-08-26T08:17:43.632Z,13.85
2022-08-26T08:20:12.955Z,9.10
2022-08-26T08:22:40.835Z,8.30
2022-08-26T08:25:10.490Z,20.95
2022-08-26T08:27:40.350Z,13.23
2022-08-26T08:30:09.466Z,7.43
2022-08-26T08:32:43.726Z,11.45
2022-08-26T08:35:14.211Z,11.80
2022-08-26T08:37:42.204Z,10.48
2022-08-26T08:40:17.377Z,8.15
2022-08-26T08:42:45.858Z,11.80
2022-08-26T08:45:27.761Z,9.20
2022-08-26T08:47:58.453Z,15.25
2022-08-26T08:50:35.641Z,11.55
2022-08-26T08:53:12.322Z,6.78
2022-08-26T08:55:55.920Z,7.78
2022-08-26T08:58:43.919Z,18.00
2022-08-26T09:01:25.980Z,10.60
2022-08-26T09:04:25.809Z,9.15
2022-08-26T09:10:07.789Z,12.20
2022-08-26T09:12:35.807Z,17.10
2022-08-26T09:15:16.672Z,15.52
2022-08-26T09:17:51.079Z,14.80
2022-08-26T09:20:39.054Z,8.95
2022-08-26T09:23:10.229Z,11.13
2022-08-26T09:25:59.229Z,8.45
2022-08-26T09:28:29.721Z,14.20
2022-08-26T09:31:11.866Z,20.55
2022-08-26T09:33:41.188Z,15.82
2022-08-26T09:36:26.572Z,10.75
2022-08-26T09:38:54.702Z,13.40
2022-08-26T09:41:31.809Z,10.75
2022-08-26T09:44:14.649Z,12.55
2022-08-26T09:46:52.926Z,15.98
2022-08-26T09:49:24.229Z,11.43
2022-08-26T09:52:21.440Z,13.30
2022-08-26T09:55:01.963Z,13.63
2022-08-26T09:57:53.080Z,16.92
2022-08-26T10:00:30.298Z,15.40
2022-08-26T10:03:09.419Z,10.70
2022-08-26T10:05:47.728Z,30.67
2022-08-26T10:08:26.135Z,10.02
2022-08-26T10:10:56.398Z,21.83
2022-08-26T10:13:38.217Z,12.25
2022-08-26T10:16:28.422Z,8.10
2022-08-26T10:19:13.434Z,11.95
2022-08-26T10:21:58.079Z,12.55
2022-08-26T10:24:31.633Z,7.70
2022-08-26T10:27:24.561Z,9.27
2022-08-26T10:29:57.285Z,12.52
2022-08-26T10:32:35.459Z,10.13
2022-08-26T10:35:12.306Z,8.20
2022-08-26T10:37:45.136Z,8.40
2022-08-26T10:40:31.450Z,8.48
2022-08-26T10:43:20.333Z,7.28
2022-08-26T10:45:57.319Z,12.45
2022-08-26T10:48:46.938Z,17.98
2022-08-26T10:51:25.638Z,9.00
2022-08-26T10:54:05.046Z,11.98
2022-08-26T10:56:51.803Z,12.50
2022-08-26T10:59:39.280Z,7.82
2022-08-26T11:02:40.162Z,12.90
2022-08-26T11:05:23.407Z,9.43
2022-08-26T11:07:56.384Z,11.30
2022-08-26T11:10:24.705Z,6.93
2022-08-26T11:13:04.927Z,15.40
2022-08-26T11:15:32.345Z,7.18
2022-08-26T11:18:13.430Z,11.60
2022-08-26T11:20:46.047Z,9.55
2022-08-26T11:23:24.369Z,12.07
2022-08-26T11:26:01.325Z,10.13
2022-08-26T11:28:48.496Z,7.25
2022-08-26T11:31:19.539Z,9.82
2022-08-26T11:33:51.980Z,9.40
2022-08-26T11:36:49.311Z,12.23
2022-08-26T11:39:55.352Z,11.23
2022-08-26T11:42:49.338Z,11.57
2022-08-26T11:45:39.424Z,10.80
2022-08-26T11:48:22.425Z,25.63
2022-08-26T11:51:01.046Z,12.27
2022-08-26T11:53:33.646Z,10.20
2022-08-26T11:56:07.919Z,8.45
2022-08-26T11:58:36.362Z,7.18
2022-08-26T12:01:09.634Z,10.77
2022-08-26T12:03:50.434Z,12.35
2022-08-26T12:06:37.475Z,12.10
2022-08-26T12:09:22.637Z,15.65
2022-08-26T12:11:50.771Z,8.85
2022-08-26T12:14:24.977Z,11.43
2022-08-26T12:16:54.315Z,8.05
2022-08-26T12:19:33.001Z,14.90
2022-08-26T12:22:22.395Z,7.78
2022-08-26T12:25:01.773Z,11.52
2022-08-26T12:27:32.712Z,14.23
2022-08-26T12:30:06.922Z,7.70
2022-08-26T12:32:55.154Z,12.38
2022-08-26T12:35:28.949Z,6.75
2022-08-26T12:37:57.717Z,15.02
2022-08-26T12:40:55.501Z,11.73
2022-08-26T12:43:43.718Z,18.83
2022-08-26T12:46:16.378Z,10.50
2022-08-26T12:48:47.839Z,48.28
2022-08-26T12:51:24.348Z,17.30
2022-08-26T12:53:52.828Z,9.90
2022-08-26T12:56:39.900Z,9.95
2022-08-26T12:59:19.975Z,7.65
2022-08-26T13:01:48.664Z,14.15
2022-08-26T13:04:42.794Z,9.77
2022-08-26T13:07:24.390Z,6.57
2022-08-26T13:09:57.734Z,18.40
2022-08-26T13:12:26.996Z,12.15
2022-08-26T13:14:54.758Z,14.98
2022-08-26T13:17:22.317Z,7.60
2022-08-26T13:19:49.822Z,14.95
2022-08-26T13:22:20.424Z,12.27
2022-08-26T13:24:50.938Z,14.20
2022-08-26T13:27:20.695Z,12.48
2022-08-26T13:29:48.207Z,18.00
2022-08-26T13:32:16.116Z,12.45
2022-08-26T13:34:51.425Z,14.85
2022-08-26T13:37:22.411Z,7.47
2022-08-26T13:40:07.199Z,11.15
2022-08-26T13:42:34.877Z,11.60
2022-08-26T13:45:02.629Z,17.67
2022-08-26T13:47:30.345Z,10.40
2022-08-26T13:49:57.899Z,6.55
2022-08-26T13:52:30.446Z,7.75
2022-08-26T13:55:03.001Z,10.60
2022-08-26T13:57:30.720Z,11.20
2022-08-26T13:59:59.598Z,15.60
2022-08-26T14:02:28.684Z,14.15
2022-08-26T14:04:56.186Z,22.60
2022-08-26T14:07:23.849Z,9.38
2022-08-26T14:09:51.584Z,12.15
2022-08-26T14:12:19.547Z,10.68
2022-08-26T14:14:46.923Z,6.18
2022-08-26T14:17:31.089Z,10.32
2022-08-26T14:19:59.812Z,8.95
2022-08-26T14:22:27.997Z,9.48
2022-08-26T14:24:56.618Z,8.52
2022-08-26T14:27:25.426Z,8.82
2022-08-26T14:29:53.979Z,14.40
2022-08-26T14:32:48.332Z,11.43
2022-08-26T14:35:19.163Z,15.85
2022-08-26T14:37:46.764Z,11.02
2022-08-26T14:40:18.746Z,8.40
2022-08-26T14:42:52.756Z,15.13
2022-08-26T14:45:24.347Z,6.28
2022-08-26T14:47:55.672Z,9.05
2022-08-26T14:50:26.124Z,7.63
2022-08-26T14:53:12.545Z,12.95
2022-08-26T14:55:42.482Z,12.13
2022-08-26T14:58:10.512Z,15.02
2022-08-26T15:00:38.368Z,14.60
2022-08-26T15:03:06.203Z,10.75
2022-08-26T15:05:34.515Z,8.52
2022-08-26T15:08:02.794Z,16.98
2022-08-26T15:10:30.193Z,14.75
2022-08-26T15:12:57.924Z,6.68
2022-08-26T15:15:27.576Z,9.25
2022-08-26T15:17:58.301Z,10.48
2022-08-26T15:20:25.914Z,8.80
2022-08-26T15:22:53.659Z,12.80
2022-08-26T15:25:21.211Z,12.35
2022-08-26T15:27:48.806Z,8.55
2022-08-26T15:30:16.782Z,18.10
2022-08-26T15:32:44.324Z,9.10
2022-08-26T15:35:11.917Z,15.90
2022-08-26T15:37:39.316Z,6.82
2022-08-26T15:40:09.400Z,10.43
2022-08-26T15:42:37.578Z,10.93
2022-08-26T15:45:05.138Z,10.38
2022-08-26T15:47:32.519Z,16.23
2022-08-26T15:50:12.039Z,13.40
2022-08-26T15:52:39.849Z,9.88
2022-08-26T15:55:07.774Z,10.68
2022-08-26T15:57:35.471Z,24.95
2022-08-26T16:00:03.805Z,28.17
2022-08-26T16:02:39.398Z,9.05
2022-08-26T16:05:07.266Z,16.65
2022-08-26T16:07:34.823Z,11.35
2022-08-26T16:10:02.779Z,15.60
2022-08-26T16:12:30.058Z,12.88
2022-08-26T16:14:57.531Z,11.27
2022-08-26T16:17:25.849Z,14.13
2022-08-26T16:19:53.174Z,11.45
2022-08-26T16:22:20.449Z,22.00
2022-08-26T16:24:49.621Z,9.45
2022-08-26T16:27:16.835Z,7.60
2022-08-26T16:29:44.536Z,9.30
2022-08-26T16:32:12.458Z,12.57
2022-08-26T16:34:56.138Z,9.00
2022-08-26T16:37:24.420Z,18.10
2022-08-26T16:42:35.967Z,19.10
2022-08-26T16:45:04.474Z,10.93
2022-08-26T16:47:33.018Z,9.20
2022-08-26T16:50:00.681Z,14.02
2022-08-26T16:52:28.310Z,6.32
2022-08-26T16:54:58.953Z,8.50
2022-08-26T16:57:26.344Z,10.27
2022-08-26T16:59:54.236Z,14.80
2022-08-26T17:02:21.765Z,7.18
2022-08-26T17:04:50.245Z,10.95
2022-08-26T17:07:17.992Z,7.25
2022-08-26T17:09:45.443Z,17.73
2022-08-26T17:12:12.816Z,7.85
2022-08-26T17:14:40.508Z,17.55
2022-08-26T17:17:08.375Z,16.77
2022-08-26T17:19:39.106Z,12.18
2022-08-26T17:22:15.750Z,16.90
2022-08-26T17:24:43.209Z,19.38
2022-08-26T17:27:10.908Z,16.88
2022-08-26T17:29:38.581Z,17.00
2022-08-26T17:32:05.968Z,13.77
2022-08-26T17:34:33.353Z,10.40
2022-08-26T17:37:00.877Z,40.90
2022-08-26T17:39:28.358Z,40.17
2022-08-26T17:41:55.658Z,11.88
2022-08-26T17:44:24.111Z,11.70
2022-08-26T17:46:51.622Z,16.35
2022-08-26T17:49:19.030Z,8.60
2022-08-26T17:51:46.928Z,15.60
2022-08-26T17:54:15.543Z,10.48
2022-08-26T17:56:42.875Z,11.57
2022-08-26T17:59:10.784Z,9.80
2022-08-26T18:01:39.151Z,11.90
2022-08-26T18:04:06.607Z,9.18
2022-08-26T18:06:34.464Z,11.30
2022-08-26T18:09:01.849Z,17.58
2022-08-26T18:11:31.209Z,15.73
2022-08-26T18:14:00.524Z,12.40
2022-08-26T18:16:29.977Z,11.95
2022-08-26T18:19:00.982Z,14.98
2022-08-26T18:21:30.888Z,13.27
2022-08-26T18:23:58.859Z,14.00
2022-08-26T18:26:35.624Z,16.67
2022-08-26T18:29:04.592Z,14.15
2022-08-26T18:31:32.431Z,18.27
2022-08-26T18:34:01.359Z,12.90
2022-08-26T18:36:35.577Z,20.13
2022-08-26T18:39:05.208Z,18.25
2022-08-26T18:41:39.098Z,18.77
2022-08-26T18:44:08.545Z,21.77
2022-08-26T18:46:38.085Z,22.52
2022-08-26T18:49:06.851Z,37.15
2022-08-26T18:51:35.212Z,27.40
2022-08-26T18:54:06.034Z,29.10
2022-08-26T18:56:35.712Z,30.30
2022-08-26T18:59:05.130Z,36.53
2022-08-26T19:01:34.855Z,25.52
2022-08-26T19:04:04.695Z,18.65
2022-08-26T19:06:35.613Z,22.67
2022-08-26T19:09:05.891Z,24.98
2022-08-26T19:11:37.230Z,19.80
2022-08-26T19:14:08.069Z,16.58
2022-08-26T19:16:37.580Z,21.35
2022-08-26T19:19:05.632Z,19.13
2022-08-26T19:21:34.467Z,13.00
2022-08-26T19:24:05.012Z,14.10
2022-08-26T19:26:33.542Z,14.77
2022-08-26T19:29:05.865Z,17.23
2022-08-26T19:31:48.718Z,21.75
2022-08-26T19:34:20.269Z,17.70
2022-08-26T19:36:49.637Z,12.95
2022-08-26T19:39:17.352Z,15.48
2022-08-26T19:41:44.667Z,20.63
2022-08-26T19:44:38.535Z,17.60
2022-08-26T19:47:08.352Z,15.48
2022-08-26T19:49:36.394Z,10.20
2022-08-26T19:52:05.733Z,23.20
2022-08-26T19:54:34.280Z,18.52
2022-08-26T19:57:02.011Z,20.70
2022-08-26T19:59:29.702Z,15.55
2022-08-26T20:02:00.563Z,18.23
2022-08-26T20:04:30.912Z,21.60
2022-08-26T20:07:00.704Z,20.85
2022-08-26T20:09:34.161Z,20.10
2022-08-26T20:12:03.214Z,22.25
2022-08-26T20:14:31.158Z,18.23
2022-08-26T20:16:58.999Z,22.67
2022-08-26T20:19:45.561Z,20.80
2022-08-26T20:22:15.184Z,25.63
2022-08-26T20:24:43.202Z,21.90
2022-08-26T20:27:11.117Z,23.00
2022-08-26T20:29:38.940Z,25.65
2022-08-26T20:32:08.076Z,28.83
2022-08-26T20:34:36.727Z,20.02
2022-08-26T20:37:04.927Z,22.42
2022-08-26T20:39:32.946Z,18.65
2022-08-26T20:42:00.462Z,18.63
2022-08-26T20:44:28.439Z,34.38
2022-08-26T20:46:56.866Z,31.05
2022-08-26T20:49:24.482Z,30.00
2022-08-26T20:51:53.115Z,43.40
2022-08-26T20:54:26.279Z,24.52
2022-08-26T20:56:58.006Z,30.98
2022-08-26T20:59:26.877Z,41.28
2022-08-26T21:01:54.792Z,31.17
2022-08-26T21:04:25.401Z,41.33
2022-08-26T21:06:54.605Z,32.63
2022-08-26T21:09:23.335Z,26.27
2022-08-26T21:11:51.695Z,37.13
2022-08-26T21:14:20.763Z,24.92
2022-08-26T21:16:48.575Z,30.92
2022-08-26T21:19:18.325Z,51.65
2022-08-26T21:21:48.120Z,54.20
2022-08-26T21:24:16.273Z,44.88
2022-08-26T21:26:44.207Z,47.20
2022-08-26T21:29:13.652Z,49.25
2022-08-26T21:31:46.055Z,52.15
2022-08-26T21:34:17.305Z,46.63
2022-08-26T21:36:46.168Z,56.38
2022-08-26T21:39:14.185Z,40.60
2022-08-26T21:41:43.573Z,37.53
2022-08-26T21:44:12.403Z,45.65
2022-08-26T21:46:40.525Z,46.97
2022-08-26T21:49:10.213Z,43.45
2022-08-26T21:51:40.658Z,38.05
2022-08-26T21:54:11.003Z,35.55
2022-08-26T21:56:46.200Z,34.95
2022-08-26T21:59:18.652Z,34.45
2022-08-26T22:01:46.657Z,33.17
2022-08-26T22:04:14.306Z,31.45
2022-08-26T22:06:44.989Z,28.15
2022-08-26T22:09:13.707Z,23.52
2022-08-26T22:11:41.623Z,24.70
2022-08-26T22:14:09.032Z,24.30
2022-08-26T22:16:37.175Z,24.40
2022-08-26T22:19:04.658Z,26.52
2022-08-26T22:21:32.259Z,20.05
2022-08-26T22:23:59.716Z,23.10
2022-08-26T22:26:29.665Z,25.98
2022-08-26T22:28:59.074Z,26.55
2022-08-26T22:31:38.484Z,21.00
2022-08-26T22:34:09.043Z,20.52
2022-08-26T22:36:42.658Z,18.40
2022-08-26T22:39:12.287Z,18.77
2022-08-26T22:41:40.207Z,19.88
2022-08-26T22:44:07.647Z,17.02
2022-08-26T22:46:36.761Z,22.45
2022-08-26T22:49:04.952Z,16.02
2022-08-26T22:51:32.453Z,14.82
2022-08-26T22:53:59.806Z,15.45
2022-08-26T22:56:27.431Z,14.90
2022-08-26T22:58:54.682Z,19.65
2022-08-26T23:01:22.128Z,20.45
2022-08-26T23:03:49.873Z,19.77
2022-08-26T23:06:17.224Z,18.60
2022-08-26T23:08:46.452Z,20.10
2022-08-26T23:11:15.077Z,21.95
2022-08-26T23:13:42.762Z,16.05
2022-08-26T23:16:11.769Z,17.85
2022-08-26T23:18:41.467Z,18.02
2022-08-26T23:21:09.515Z,17.92
2022-08-26T23:23:38.423Z,21.95
2022-08-26T23:26:07.871Z,18.40
2022-08-26T23:28:36.577Z,19.55
2022-08-26T23:31:05.131Z,17.95
2022-08-26T23:33:51.145Z,17.67
2022-08-26T23:36:22.943Z,14.68
2022-08-26T23:38:52.664Z,16.63
2022-08-26T23:41:23.035Z,18.92
2022-08-26T23:43:51.763Z,17.30
2022-08-26T23:46:20.058Z,19.80
2022-08-26T23:48:48.032Z,17.17
2022-08-26T23:51:33.867Z,20.98
2022-08-26T23:54:01.721Z,21.60
2022-08-26T23:56:29.300Z,13.18
2022-08-26T23:58:57.342Z,15.73
